Lillis, Kansas
Current Conditions -  °F | °C
As of 9:15 AM on Thursday 18 Dec 2014 (Local Time) from KMYZ Reporting Station
Light Snow Light Snow  
Wind Chill: 28°   Ceiling: 2200
Heat Index: 28°   Visibility: 5mi
Dew Point: 27°   Wind: 3mph
Humidity: 93%   Direction: 100°E
Pressure: 30.23"   Gusts: NA
Location:  39.7199°N, 96.4404°W
Report Text: KMYZ 181515Z AUTO 10003KT 5SM -SN OVC022 M02/M03 A3023 RMK AO2
Loading
Personal Weather Stations






























Interactive Weather Map New forecast layout! Learn more

10-Day Weather Forecast

Advertisements
Track Severe Weather on mobile